Карточка аэропорта UWLW

Внимание!
Информация на этой странице в стадии наполнения.
Если вы не увидели какой-то информации, или заметили неточность - пожалуйста сообщите нам!
Спасибо!
Команда RU-STAFF
Название аэропортаВосточный
Название аэропорта (англ.)Vostochny
Превышение252 ft. (76.8 m.)
Координаты54°24', 48°48'
Высота перехода900m
Эшелон переходаQFE>=726mm:FL050; QFE<726:FL060
Коды ответчика6725-6727
Зона ОрВДСамара РПИ (UWWW)
Данные METARUWLW 140500Z 02002MPS 310V080 CAVOK 07/00 Q1015 R02/CLRD60 NOSIG RMK QFE754/1006
Проноз погоды (TAF)UWLW 140149Z 1403/1503 31003MPS 9999 BKN020 TX10/1411Z TN02/1502Z BECMG 1410/1412 14003MPS
NOTAMshow/hide NOTAM
AWOS   TABLE

Информация о ВПП

ВПП Длина ВПП (м.) Покрытие Курс ВПП Частота ILS
205000Железобетон200110.1
025000Железобетон20110.1

Диспетчерские позиции


Сценарии



Спутниковое изображение